• Join FlightAware (Why Join?)
  • Login
  • US Flag 
10:09PM EDT


 

Airport Tracker/Info


-or-


 

Live Flight TrackerFlight Track Log ✈ N33PJ ✈ 01-May-2013 ✈ KBIL - KISN

Flight Track Log - Related Links

Times and Time Zones

All times are in EDT time to prevent confusion due to time zone crossing. See the N33PJ flight status page for this flight to view local times or setup timezone preferences in your user account.

Time Position Orientation Groundspeed Altitude Reporting Facility
EDT Latitude Longitude Course Direction KTS MPH feet Rate Location/Type
04:45PM 45.8306 -108.5753 25° Northeast 221 254 5,500  Level Salt Lake Center
04:46PM 45.8975 -108.5297 25° Northeast 275 316 9,900 4,080 Climbing Salt Lake Center
04:47PM 45.9458 -108.4361 53° Northeast 293 337 13,900 3,600 Climbing Salt Lake Center
04:48PM 45.9958 -108.3372 54° Northeast 306 352 17,400 3,120 Climbing Salt Lake Center
04:49PM 46.0519 -108.2256 54° Northeast 331 381 20,400 2,760 Climbing Salt Lake Center
04:50PM 46.1053 -108.1192 54° Northeast 342 394 23,100 2,580 Climbing Salt Lake Center
04:51PM 46.1706 -107.9886 54° Northeast 356 410 25,800 1,860 Climbing Salt Lake Center
04:52PM 46.2289 -107.8703 54° Northeast 376 433 27,000 540 Climbing Salt Lake Center
04:53PM 46.2944 -107.7383 54° Northeast 420 483 27,000  Level Salt Lake Center
04:54PM 46.3767 -107.5742 54° Northeast 448 516 27,000  Level Salt Lake Center
04:55PM 46.4492 -107.4233 55° Northeast 468 539 27,000  Level Salt Lake Center
04:56PM 46.5325 -107.2442 56° Northeast 475 547 27,000  Level Salt Lake Center
04:57PM 46.6036 -107.0939 55° Northeast 474 545 27,000  Level Salt Lake Center
04:58PM 46.6742 -106.9444 55° Northeast 472 543 27,000  Level Salt Lake Center
04:59PM 46.7592 -106.7828 52° Northeast 461 531 27,000  Level Salt Lake Center
05:00PM 46.8289 -106.6344 55° Northeast 462 532 27,000  Level Salt Lake Center
05:01PM 46.9111 -106.4625 55° Northeast 463 533 27,000  Level Salt Lake Center
05:02PM 46.9817 -106.3142 55° Northeast 464 534 27,000  Level Salt Lake Center
05:03PM 47.0528 -106.1608 56° Northeast 465 535 27,000  Level Salt Lake Center
05:04PM 47.1267 -106.0039 55° Northeast 467 537 27,000  Level Salt Lake Center
05:05PM 47.1994 -105.8478 56° Northeast 466 536 27,000  Level Salt Lake Center
05:06PM 47.2725 -105.6906 56° Northeast 466 536 27,000  Level Salt Lake Center
05:07PM 47.3600 -105.4989 56° Northeast 470 541 27,000  Level Salt Lake Center
05:08PM 47.4314 -105.3372 57° Northeast 471 542 27,000 -600 Level Salt Lake Center
05:09PM 47.5047 -105.1783 56° Northeast 470 541 25,800 -1,980 Descending Salt Lake Center
05:10PM 47.5742 -105.0244 56° Northeast 460 529 23,000 -2,520 Descending Salt Lake Center
05:11PM 47.6417 -104.8758 56° Northeast 449 517 20,700 -2,220 Descending Salt Lake Center
05:12PM 47.7058 -104.7317 56° Northeast 435 501 18,500 -1,920 Descending Salt Lake Center
05:13PM 47.7681 -104.5908 57° Northeast 422 486 16,800 -1,860 Descending Salt Lake Center
05:14PM 47.8283 -104.4531 57° Northeast 410 472 14,700 -2,220 Descending Salt Lake Center
05:15PM 47.8972 -104.2967 57° Northeast 392 451 12,300 -2,160 Descending Salt Lake Center
05:16PM 47.9367 -104.1706 65° Northeast 359 413 10,300 -1,800 Descending Salt Lake Center
05:17PM 47.9547 -104.0797 73° East 315 362 8,700 -1,560 Descending Salt Lake Center